Time;durP1;ratioP1;P1;durP2;ratioP2;P2;SDS_P1;SDS_P2;PMS_P1;PMS_P2;Temp;Humidity;BMP_temperature;BMP_pressure;BME280_temperature;BME280_humidity;BME280_pressure;Samples;Min_cycle;Max_cycle;Signal;HPM_P1;HPM_P2
2021/04/12 00:00:12;;;;;;;38.60;17.70;;;9.60;99.90;;;;;;8326551;28;20025;-70
2021/04/12 00:04:23;;;;;;;38.60;17.35;;;9.50;99.90;;;;;;8327493;28;20628;-70
2021/04/12 00:08:47;;;;;;;37.38;18.92;;;9.40;99.90;;;;;;8326489;28;20029;-69
2021/04/12 00:12:57;;;;;;;38.17;18.33;;;9.40;99.90;;;;;;8326935;28;20500;-69
2021/04/12 00:17:05;;;;;;;37.58;19.20;;;9.30;99.90;;;;;;8327552;28;20032;-69
2021/04/12 00:21:43;;;;;;;37.97;18.80;;;9.10;99.90;;;;;;8308899;28;20030;-69
2021/04/12 00:25:46;;;;;;;;;;;9.00;99.90;;;;;;8293655;28;20125;-70
2021/04/12 00:29:53;;;;;;;;;;;8.80;99.90;;;;;;8294863;28;19909;-69
2021/04/12 00:34:06;;;;;;;46.30;17.13;;;8.80;99.90;;;;;;8292020;28;20428;-69
2021/04/12 00:38:17;;;;;;;37.50;18.33;;;8.90;99.90;;;;;;8294138;28;20033;-69
2021/04/12 00:42:39;;;;;;;37.78;18.52;;;9.10;99.90;;;;;;8293749;28;20496;-70
2021/04/12 00:46:51;;;;;;;;;;;8.90;99.90;;;;;;8294929;28;20034;-69
2021/04/12 00:51:02;;;;;;;;;;;8.70;99.90;;;;;;8310872;28;19927;-69
2021/04/12 00:55:14;;;;;;;43.42;16.65;;;8.40;99.90;;;;;;8325676;28;20420;-69
2021/04/12 01:00:05;;;;;;;40.00;18.48;;;8.20;99.90;;;;;;8326898;28;20439;-68
2021/04/12 01:04:32;;;;;;;41.25;19.33;;;8.20;99.90;;;;;;8293104;28;20033;-68
2021/04/12 01:09:06;;;;;;;41.28;18.60;;;8.00;99.90;;;;;;8326480;28;20029;-68
2021/04/12 01:13:12;;;;;;;;;;;8.00;99.90;;;;;;8326164;28;20101;-68
2021/04/12 01:17:28;;;;;;;;;;;7.70;99.90;;;;;;8326805;28;19905;-68
2021/04/12 01:21:53;;;;;;;46.03;16.90;;;7.60;99.90;;;;;;8325370;28;20439;-67
2021/04/12 01:26:13;;;;;;;44.90;18.73;;;7.40;99.90;;;;;;8327661;28;20033;-67
2021/04/12 01:30:41;;;;;;;45.60;19.00;;;7.20;99.90;;;;;;8332189;28;20071;-67
2021/04/12 01:35:05;;;;;;;44.78;18.70;;;7.20;99.90;;;;;;8332064;28;20393;-67
2021/04/12 01:39:41;;;;;;;44.35;18.63;;;7.20;99.90;;;;;;8331466;28;20071;-67
2021/04/12 01:44:00;;;;;;;44.22;18.83;;;7.40;99.90;;;;;;8331703;28;20021;-67
2021/04/12 01:48:25;;;;;;;45.58;19.70;;;7.20;99.90;;;;;;8331439;28;20440;-67
2021/04/12 01:52:34;;;;;;;45.25;18.90;;;7.00;99.90;;;;;;8331201;28;20042;-68
2021/04/12 01:57:10;;;;;;;45.78;23.05;;;6.80;99.90;;;;;;8331690;28;20037;-67
2021/04/12 02:01:33;;;;;;;46.60;19.63;;;6.60;99.90;;;;;;8331229;28;20018;-68
2021/04/12 02:05:36;;;;;;;48.90;23.05;;;6.60;99.90;;;;;;8329899;28;20051;-68
2021/04/12 02:10:08;;;;;;;48.60;19.48;;;6.40;99.90;;;;;;8329784;28;20039;-67
2021/04/12 02:14:25;;;;;;;49.40;26.48;;;6.40;99.90;;;;;;8330957;28;20021;-67
2021/04/12 02:18:49;;;;;;;53.88;22.65;;;6.10;99.90;;;;;;8331038;28;20030;-67
2021/04/12 02:23:03;;;;;;;59.50;21.38;;;5.60;99.90;;;;;;8297807;28;20041;-67
2021/04/12 02:27:05;;;;;;;62.05;22.17;;;5.10;99.90;;;;;;8298021;28;20082;-68
2021/04/12 02:31:39;;;;;;;66.93;29.00;;;4.90;99.90;;;;;;8296408;28;20143;-68
2021/04/12 02:35:45;;;;;;;;;;;4.70;99.90;;;;;;8297446;28;20026;-68
2021/04/12 02:39:54;;;;;;;;;;;4.60;99.90;;;;;;8297078;28;20402;-68
2021/04/12 02:44:11;;;;;;;64.10;18.70;;;4.50;99.90;;;;;;8296318;28;20900;-67
2021/04/12 02:48:18;;;;;;;;;;;4.60;99.90;;;;;;8297744;28;20026;-68
2021/04/12 02:52:27;;;;;;;;;;;4.60;99.90;;;;;;8297135;28;19967;-68
2021/04/12 02:57:05;;;;;;;67.17;19.03;;;4.60;99.90;;;;;;8295219;28;20592;-67
2021/04/12 03:01:05;;;;;;;;;;;4.40;99.90;;;;;;8297271;28;20030;-68
2021/04/12 03:05:15;;;;;;;;;;;4.10;99.90;;;;;;8297158;28;19986;-68
2021/04/12 03:09:40;;;;;;;74.85;20.00;;;4.00;99.90;;;;;;8294916;28;20434;-68
2021/04/12 03:13:41;;;;;;;;;;;3.80;99.90;;;;;;8295412;28;20033;-67
2021/04/12 03:18:07;;;;;;;;;;;3.80;99.90;;;;;;8295580;28;19906;-67
2021/04/12 03:22:20;;;;;;;72.53;20.00;;;3.70;99.90;;;;;;8322455;28;20420;-68
2021/04/12 03:26:26;;;;;;;;;;;3.50;99.90;;;;;;8328975;28;20124;-68
2021/04/12 03:30:30;;;;;;;;;;;3.30;99.90;;;;;;8327763;28;19995;-67
2021/04/12 03:34:39;;;;;;;67.47;19.90;;;3.30;99.90;;;;;;8327625;28;20405;-67
2021/04/12 03:38:49;;;;;;;;;;;3.30;99.90;;;;;;8310622;28;20515;-69
2021/04/12 03:42:52;;;;;;;;;;;3.20;99.90;;;;;;8311974;28;20354;-67
2021/04/12 03:47:11;;;;;;;;;;;2.90;99.90;;;;;;8311698;28;19913;-67
2021/04/12 03:51:43;;;;;;;;;;;2.80;99.90;;;;;;8307847;28;19913;-67
2021/04/12 03:55:49;;;;;;;;;;;2.70;99.90;;;;;;8339068;23;19921;-65
2021/04/12 03:59:56;;;;;;;;;;;2.30;99.90;;;;;;8328416;28;20320;-66
2021/04/12 04:03:59;;;;;;;;;;;2.30;99.90;;;;;;8327775;28;20292;-66
2021/04/12 04:08:12;;;;;;;;;;;2.20;99.90;;;;;;8328172;28;19924;-66
2021/04/12 04:12:21;;;;;;;;;;;2.10;99.90;;;;;;8327371;28;19932;-65
2021/04/12 04:16:43;;;;;;;;;;;2.00;99.90;;;;;;8328151;28;20355;-66
2021/04/12 04:20:49;;;;;;;;;;;2.10;99.90;;;;;;8310164;28;19916;-65
2021/04/12 04:25:07;;;;;;;;;;;2.00;99.90;;;;;;8327721;28;19905;-66
2021/04/12 04:29:16;;;;;;;;;;;2.00;99.90;;;;;;8327513;28;19905;-64
2021/04/12 04:33:28;;;;;;;;;;;2.10;99.90;;;;;;8294713;28;19959;-65
2021/04/12 04:37:34;;;;;;;;;;;2.00;99.90;;;;;;8290366;28;19913;-65
2021/04/12 04:41:53;;;;;;;;;;;2.00;99.90;;;;;;8298642;28;19920;-65
2021/04/12 04:46:03;;;;;;;;;;;2.00;99.90;;;;;;8319444;28;20393;-65
2021/04/12 04:50:12;;;;;;;;;;;1.90;99.90;;;;;;8315416;28;19909;-64
2021/04/12 04:54:28;;;;;;;;;;;1.90;99.90;;;;;;8304652;28;20368;-64
2021/04/12 04:58:47;;;;;;;;;;;1.90;99.90;;;;;;8310428;28;20453;-64
2021/04/12 05:03:06;;;;;;;;;;;1.90;99.90;;;;;;8316172;28;19912;-64
2021/04/12 05:07:25;;;;;;;;;;;1.80;99.90;;;;;;8310677;28;20296;-65
2021/04/12 05:11:25;;;;;;;;;;;1.90;99.90;;;;;;8300878;28;20360;-64
2021/04/12 05:15:45;;;;;;;;;;;1.90;99.90;;;;;;8300497;28;19906;-64
2021/04/12 05:19:52;;;;;;;;;;;1.90;99.90;;;;;;8308051;28;19908;-64
2021/04/12 05:23:53;;;;;;;;;;;1.90;99.90;;;;;;8295159;28;19913;-63
2021/04/12 05:28:13;;;;;;;;;;;2.00;99.90;;;;;;8306191;28;20469;-63
2021/04/12 05:32:22;;;;;;;;;;;2.10;99.90;;;;;;8308083;28;19909;-63
2021/04/12 05:36:37;;;;;;;;;;;2.10;99.90;;;;;;8299274;28;19910;-63
2021/04/12 05:40:53;;;;;;;;;;;2.10;99.90;;;;;;8301906;28;20449;-63
2021/04/12 05:44:58;;;;;;;;;;;2.40;99.90;;;;;;8309783;28;20393;-63
2021/04/12 05:49:17;;;;;;;;;;;2.20;99.90;;;;;;8320226;28;19945;-63
2021/04/12 05:53:26;;;;;;;;;;;2.10;99.90;;;;;;8315366;28;19913;-63
2021/04/12 05:57:32;;;;;;;;;;;2.00;99.90;;;;;;8305641;28;20383;-63
2021/04/12 06:01:45;;;;;;;;;;;2.00;99.90;;;;;;8315300;28;20043;-63
2021/04/12 06:06:04;;;;;;;;;;;2.10;99.90;;;;;;8297519;28;20576;-64
2021/04/12 06:10:07;;;;;;;;;;;2.10;99.90;;;;;;8318798;28;19940;-64
2021/04/12 06:14:26;;;;;;;;;;;2.00;99.90;;;;;;8311164;28;19905;-64
2021/04/12 06:18:36;;;;;;;66.53;19.73;;;2.00;99.90;;;;;;8314329;28;20839;-64
2021/04/12 06:22:36;;;;;;;58.72;28.30;;;2.00;99.90;;;;;;8296811;28;20113;-64
2021/04/12 06:26:56;;;;;;;;;;;1.90;99.90;;;;;;8313821;28;20017;-64
2021/04/12 06:30:56;;;;;;;;;;;1.90;99.90;;;;;;8317780;28;19915;-63
2021/04/12 06:35:05;;;;;;;58.67;19.60;;;2.00;99.90;;;;;;8319128;28;20408;-65
2021/04/12 06:39:11;;;;;;;;;;;2.20;99.90;;;;;;8312057;28;20030;-63
2021/04/12 06:43:30;;;;;;;;;;;2.60;99.90;;;;;;8313595;28;19917;-64
2021/04/12 06:47:56;;;;;;;55.67;19.42;;;2.60;99.90;;;;;;8310858;28;20448;-65
2021/04/12 06:52:12;;;;;;;;;;;2.90;99.90;;;;;;8315876;28;20060;-64
2021/04/12 06:56:18;;;;;;;;;;;3.00;99.90;;;;;;8318809;28;19920;-65
2021/04/12 07:00:38;;;;;;;;;;;3.00;99.90;;;;;;8300647;28;19920;-65
2021/04/12 07:04:39;;;;;;;;;;;3.10;99.90;;;;;;8313127;28;19960;-65
2021/04/12 07:08:55;;;;;;;;;;;3.40;99.90;;;;;;8294523;28;19909;-65
2021/04/12 07:13:18;;;;;;;;;;;3.50;99.90;;;;;;8309293;28;20371;-65
2021/04/12 07:17:27;;;;;;;;;;;3.50;99.90;;;;;;8312317;28;19905;-65
2021/04/12 07:21:40;;;;;;;;;;;3.40;99.90;;;;;;8312186;28;19917;-66
2021/04/12 07:25:46;;;;;;;;;;;3.30;99.90;;;;;;8314183;28;19943;-65
2021/04/12 07:30:05;;;;;;;;;;;3.50;99.90;;;;;;8315380;28;20008;-65
2021/04/12 07:34:15;;;;;;;;;;;3.30;99.90;;;;;;8307772;28;19913;-64
2021/04/12 07:38:36;;;;;;;;;;;3.50;99.90;;;;;;8311628;28;19906;-64
2021/04/12 07:42:55;;;;;;;;;;;3.00;99.90;;;;;;8274974;28;19921;-65
2021/04/12 07:47:31;;;;;;;;;;;3.10;99.90;;;;;;8312927;28;19909;-66
2021/04/12 07:51:31;;;;;;;;;;;3.40;99.90;;;;;;8315463;28;19909;-64
2021/04/12 07:55:50;;;;;;;;;;;3.70;99.90;;;;;;8310240;28;19923;-64
2021/04/12 08:00:02;;;;;;;;;;;3.90;99.90;;;;;;8311422;28;19909;-64
2021/04/12 08:04:36;;;;;;;;;;;4.00;99.90;;;;;;8295434;28;20379;-64
2021/04/12 08:08:56;;;;;;;;;;;4.00;99.90;;;;;;8313184;28;19905;-63
2021/04/12 08:13:05;;;;;;;;;;;3.50;99.90;;;;;;8311109;28;20274;-64
2021/04/12 08:17:07;;;;;;;;;;;3.30;99.90;;;;;;8293068;28;19913;-64
2021/04/12 08:21:08;;;;;;;;;;;3.00;99.90;;;;;;8310619;28;19909;-64
2021/04/12 08:25:34;;;;;;;;;;;3.40;99.90;;;;;;8305254;28;20007;-64
2021/04/12 08:29:44;;;;;;;;;;;3.50;99.90;;;;;;8288223;28;20008;-64
2021/04/12 08:33:51;;;;;;;;;;;3.00;99.90;;;;;;8291232;28;19909;-63
2021/04/12 08:38:09;;;;;;;;;;;3.10;99.90;;;;;;8310239;28;19959;-64
2021/04/12 08:42:28;;;;;;;;;;;3.20;99.90;;;;;;8310465;28;19955;-64
2021/04/12 08:46:47;;;;;;;;;;;3.20;99.90;;;;;;8310542;28;20016;-64
2021/04/12 08:51:06;;;;;;;;;;;3.30;99.90;;;;;;8311639;28;19909;-64
2021/04/12 08:55:26;;;;;;;;;;;3.10;99.90;;;;;;8306596;28;19913;-64
2021/04/12 08:59:45;;;;;;;;;;;3.10;99.90;;;;;;8308693;28;20368;-64
2021/04/12 09:04:04;;;;;;;;;;;3.10;99.90;;;;;;8306307;28;20031;-64
2021/04/12 09:08:05;;;;;;;;;;;3.00;99.90;;;;;;8307231;28;19970;-63
2021/04/12 09:12:12;;;;;;;;;;;2.90;99.90;;;;;;8299410;28;19917;-63
2021/04/12 09:16:15;;;;;;;;;;;3.00;99.90;;;;;;8309116;28;20279;-64
2021/04/12 09:20:19;;;;;;;;;;;3.00;99.90;;;;;;8294804;28;19913;-64
2021/04/12 09:24:35;;;;;;;;;;;2.90;99.90;;;;;;8289116;28;20055;-65
2021/04/12 09:28:35;;;;;;;;;;;2.60;99.90;;;;;;8310026;28;19995;-64
2021/04/12 09:32:54;;;;;;;;;;;3.10;99.90;;;;;;8305914;28;19910;-65
2021/04/12 09:37:13;;;;;;;;;;;3.80;99.90;;;;;;8306499;28;20372;-64
2021/04/12 09:41:13;;;;;;;;;;;3.90;99.90;;;;;;8300254;28;19920;-64
2021/04/12 09:45:20;;;;;;;;;;;4.30;99.90;;;;;;8318009;28;19913;-65
2021/04/12 09:49:23;;;;;;;;;;;3.90;99.90;;;;;;8314453;28;19920;-64
2021/04/12 09:53:42;;;;;;;;;;;4.20;99.90;;;;;;8298432;28;19909;-64
2021/04/12 09:57:57;;;;;;;;;;;4.30;99.90;;;;;;8336424;22;19941;-65
2021/04/12 10:02:16;;;;;;;;;;;4.10;99.90;;;;;;8296747;28;19914;-65
2021/04/12 10:06:35;;;;;;;;;;;3.70;99.90;;;;;;8298957;28;19905;-65
2021/04/12 10:10:39;;;;;;;;;;;4.10;99.90;;;;;;8298768;28;19919;-64
2021/04/12 10:14:51;;;;;;;;;;;4.50;99.90;;;;;;8298482;28;19931;-63
2021/04/12 10:19:02;;;;;;;;;;;4.30;99.90;;;;;;8300459;28;20401;-63
2021/04/12 10:23:11;;;;;;;;;;;4.30;99.90;;;;;;8307288;28;20272;-64
2021/04/12 10:27:18;;;;;;;;;;;4.40;99.90;;;;;;8325499;28;20410;-63
2021/04/12 10:31:21;;;;;;;;;;;4.40;99.90;;;;;;8326599;28;20284;-63
2021/04/12 10:35:30;;;;;;;;;;;4.30;99.90;;;;;;8326116;28;19909;-63
2021/04/12 10:39:33;;;;;;;;;;;4.20;99.90;;;;;;8310716;28;19968;-63
2021/04/12 10:43:37;;;;;;;;;;;4.00;99.90;;;;;;8324392;28;20652;-61
2021/04/12 10:47:50;;;;;;;;;;;4.10;99.90;;;;;;8323150;28;19909;-61
2021/04/12 10:51:54;;;;;;;;;;;4.10;99.90;;;;;;8324503;28;19917;-61
2021/04/12 10:55:54;;;;;;;;;;;4.10;99.90;;;;;;8318295;28;20360;-61
2021/04/12 11:00:13;;;;;;;;;;;4.00;99.90;;;;;;8325318;28;19909;-62
2021/04/12 11:04:22;;;;;;;;;;;3.90;99.90;;;;;;8325107;28;19952;-62
2021/04/12 11:08:39;;;;;;;;;;;3.50;99.90;;;;;;8327928;28;19908;-62
2021/04/12 11:12:49;;;;;;;;;;;3.20;99.90;;;;;;8299600;28;19910;-63
2021/04/12 11:16:52;;;;;;;;;;;3.10;99.90;;;;;;8292548;28;20000;-63
2021/04/12 11:20:53;;;;;;;;;;;3.50;99.90;;;;;;8294497;28;19944;-63
2021/04/12 11:25:06;;;;;;;;;;;3.30;99.90;;;;;;8301437;28;19916;-64
2021/04/12 11:29:18;;;;;;;;;;;3.60;99.90;;;;;;8307661;28;19909;-64
2021/04/12 11:33:43;;;;;;;;;;;3.80;99.90;;;;;;8295644;28;19913;-64
2021/04/12 11:37:43;;;;;;;;;;;4.00;99.90;;;;;;8303195;28;19909;-63
2021/04/12 11:42:01;;;;;;;;;;;4.30;99.90;;;;;;8306620;28;19916;-63
2021/04/12 11:46:06;;;;;;;;;;;4.40;99.90;;;;;;8293647;28;19941;-63
2021/04/12 11:50:36;;;;;;;;;;;4.20;99.90;;;;;;8288661;28;19996;-67
2021/04/12 11:54:48;;;;;;;;;;;4.20;99.90;;;;;;8297707;28;19916;-66
2021/04/12 11:58:48;;;;;;;;;;;4.20;99.90;;;;;;8300094;28;20016;-62
2021/04/12 12:03:07;;;;;;;;;;;4.30;99.90;;;;;;8290860;28;20261;-62
2021/04/12 12:07:08;;;;;;;;;;;4.10;99.90;;;;;;8294275;28;19936;-63
2021/04/12 12:11:16;;;;;;;;;;;3.90;99.90;;;;;;8298411;28;19909;-62
2021/04/12 12:15:27;;;;;;;;;;;4.00;99.90;;;;;;8296079;28;19953;-61
2021/04/12 12:19:40;;;;;;;;;;;4.20;99.90;;;;;;8303712;28;19917;-62
2021/04/12 12:23:59;;;;;;;;;;;4.20;99.90;;;;;;8292333;28;19987;-62
2021/04/12 12:28:08;;;;;;;;;;;4.00;99.90;;;;;;8292496;28;19914;-63
2021/04/12 12:32:15;;;;;;;;;;;4.00;99.90;;;;;;8292199;28;19940;-63
2021/04/12 12:36:22;;;;;;;;;;;4.30;99.90;;;;;;8298976;28;19910;-63
2021/04/12 12:40:24;;;;;;;;;;;4.10;99.90;;;;;;8313823;28;19967;-62
2021/04/12 12:44:26;;;;;;;;;;;4.20;99.90;;;;;;8321469;28;19913;-63
2021/04/12 12:48:28;;;;;;;;;;;4.30;99.90;;;;;;8309655;28;19917;-63
2021/04/12 12:52:30;;;;;;;;;;;4.40;99.90;;;;;;8311114;28;19946;-62
2021/04/12 12:56:32;;;;;;;;;;;4.40;99.90;;;;;;8312846;28;19920;-63
2021/04/12 13:00:33;;;;;;;;;;;4.20;99.90;;;;;;8307102;28;20008;-64
2021/04/12 13:04:34;;;;;;;;;;;4.20;99.90;;;;;;8307244;28;20496;-63
2021/04/12 13:08:36;;;;;;;;;;;4.20;99.90;;;;;;8305165;28;19910;-62
2021/04/12 13:12:39;;;;;;;;;;;4.10;99.90;;;;;;8307884;28;19932;-63
2021/04/12 13:16:39;;;;;;;;;;;4.20;99.90;;;;;;8323328;28;19912;-63
2021/04/12 13:20:42;;;;;;;;;;;4.10;99.90;;;;;;8295993;28;20326;-61
2021/04/12 13:24:43;;;;;;;;;;;4.10;99.90;;;;;;8309159;28;19909;-63
2021/04/12 13:28:44;;;;;;;;;;;4.00;99.90;;;;;;8320542;28;20367;-62
2021/04/12 13:32:53;;;;;;;;;;;3.80;99.90;;;;;;8319312;28;19909;-62
2021/04/12 13:37:01;;;;;;;;;;;3.90;99.90;;;;;;8315618;28;19909;-63
2021/04/12 13:41:08;;;;;;;;;;;3.80;99.90;;;;;;8312219;28;19913;-62
2021/04/12 13:45:09;;;;;;;;;;;3.70;99.90;;;;;;8317772;28;19920;-63
2021/04/12 13:49:11;;;;;;;;;;;3.70;99.90;;;;;;8308416;28;19996;-63
2021/04/12 13:53:14;;;;;;;;;;;3.80;99.90;;;;;;8305172;28;20124;-62
2021/04/12 13:57:25;;;;;;;;;;;3.80;99.90;;;;;;8321061;28;19924;-62
2021/04/12 14:01:27;;;;;;;;;;;3.50;99.90;;;;;;8307811;28;19920;-61
2021/04/12 14:05:30;;;;;;;;;;;3.50;99.90;;;;;;8303325;28;19945;-63
2021/04/12 14:09:39;;;;;;;;;;;3.60;99.90;;;;;;8303346;28;19918;-63
2021/04/12 14:13:44;;;;;;;;;;;3.70;99.90;;;;;;8314217;28;19912;-62
2021/04/12 14:17:48;;;;;;;;;;;3.80;99.90;;;;;;8319834;28;20395;-63
2021/04/12 14:21:49;;;;;;;;;;;3.90;99.90;;;;;;8307375;28;20366;-63
2021/04/12 14:25:58;;;;;;;;;;;4.20;99.90;;;;;;8315555;28;19909;-62
2021/04/12 14:30:01;;;;;;;;;;;4.20;99.90;;;;;;8307485;28;19912;-62
2021/04/12 14:34:10;;;;;;;;;;;4.00;99.90;;;;;;8312953;28;19932;-62
2021/04/12 14:38:14;;;;;;;;;;;3.80;99.90;;;;;;8307255;28;20350;-62
2021/04/12 14:42:18;;;;;;;;;;;3.80;99.90;;;;;;8307095;28;20284;-61
2021/04/12 14:46:21;;;;;;;;;;;4.00;99.90;;;;;;8310586;28;19960;-62
2021/04/12 14:50:25;;;;;;;;;;;4.10;99.90;;;;;;8315753;28;20348;-62
2021/04/12 14:54:28;;;;;;;;;;;4.20;99.90;;;;;;8315043;28;20055;-63
2021/04/12 14:58:36;;;;;;;;;;;4.40;99.90;;;;;;8308130;28;20060;-62
2021/04/12 15:02:45;;;;;;;;;;;4.60;99.90;;;;;;8296723;28;19943;-65
2021/04/12 15:06:50;;;;;;;;;;;4.60;99.90;;;;;;8306079;28;19909;-64
2021/04/12 15:10:55;;;;;;;;;;;4.70;99.90;;;;;;8295543;28;19925;-63
2021/04/12 15:15:08;;;;;;;;;;;4.80;99.90;;;;;;8305786;28;19916;-62
2021/04/12 15:19:10;;;;;;;;;;;4.70;99.90;;;;;;8326667;28;19935;-62
2021/04/12 15:23:18;;;;;;;;;;;4.60;99.90;;;;;;8312494;28;19917;-61
2021/04/12 15:27:21;;;;;;;;;;;4.70;99.90;;;;;;8329073;28;19916;-61
2021/04/12 15:31:26;;;;;;;;;;;4.80;99.90;;;;;;8310491;28;19956;-61
2021/04/12 15:35:40;;;;;;;;;;;5.00;99.90;;;;;;8293965;28;20288;-63
2021/04/12 15:39:41;;;;;;;;;;;5.20;99.90;;;;;;8291008;28;19913;-63
2021/04/12 15:43:43;;;;;;;;;;;5.40;99.90;;;;;;8306498;28;20043;-61
2021/04/12 15:47:44;;;;;;;;;;;5.50;99.90;;;;;;8296016;28;19909;-61
2021/04/12 15:51:46;;;;;;;;;;;5.50;99.90;;;;;;8293374;28;19924;-63
2021/04/12 15:56:01;;;;;;;;;;;5.70;99.90;;;;;;8295213;28;20455;-63
2021/04/12 16:00:07;;;;;;;;;;;6.10;99.90;;;;;;8346301;23;19920;-66
2021/04/12 16:04:09;;;;;;;45.38;18.20;;;7.40;99.90;;;;;;8355828;28;19913;-65
2021/04/12 16:08:28;;;;;;;;;;;7.10;99.90;;;;;;8342738;28;20017;-66
2021/04/12 16:12:29;;;;;;;;;;;7.20;99.90;;;;;;8317328;28;19917;-65
2021/04/12 16:16:39;;;;;;;47.75;17.10;;;7.10;99.90;;;;;;8309804;28;20521;-67
2021/04/12 16:20:44;;;;;;;;;;;7.10;99.90;;;;;;8297952;28;20122;-65
2021/04/12 16:24:46;;;;;;;;;;;6.90;99.90;;;;;;8301707;28;20355;-65
2021/04/12 16:29:01;;;;;;;45.47;17.27;;;7.00;99.90;;;;;;8302830;28;20424;-65
2021/04/12 16:33:14;;;;;;;;;;;7.50;99.90;;;;;;8285130;28;20461;-66
2021/04/12 16:37:19;;;;;;;;;;;7.40;99.90;;;;;;8280736;28;19910;-65
2021/04/12 16:41:27;;;;;;;44.17;16.98;;;7.50;99.90;;;;;;8279080;28;20422;-65
2021/04/12 16:45:28;;;;;;;;;;;7.60;99.90;;;;;;8282485;28;20018;-66
2021/04/12 16:49:35;;;;;;;;;;;7.50;99.90;;;;;;8284440;28;19917;-65
2021/04/12 16:54:04;;;;;;;46.50;16.80;;;7.10;99.90;;;;;;8289879;28;21042;-64
2021/04/12 16:58:13;;;;;;;;;;;6.60;99.90;;;;;;8281324;28;20029;-64
2021/04/12 17:02:31;;;;;;;;;;;6.40;99.90;;;;;;8303055;28;19921;-68
2021/04/12 17:06:37;;;;;;;;;;;6.20;99.90;;;;;;8309656;28;20015;-68
2021/04/12 17:10:58;;;;;;;;;;;6.10;99.90;;;;;;8303337;28;19906;-68
2021/04/12 17:15:07;;;;;;;;;;;5.90;99.90;;;;;;8313566;28;19995;-67
2021/04/12 17:19:09;;;;;;;;;;;5.80;99.90;;;;;;8318240;28;19913;-69
2021/04/12 17:23:12;;;;;;;;;;;5.60;99.90;;;;;;8335543;28;19916;-68
2021/04/12 17:27:22;;;;;;;;;;;5.50;99.90;;;;;;8340191;28;19959;-68
2021/04/12 17:31:39;;;;;;;54.05;17.80;;;5.60;99.90;;;;;;8338359;28;20440;-67
2021/04/12 17:35:56;;;;;;;;;;;5.50;99.90;;;;;;8345486;28;20032;-69
2021/04/12 17:40:15;;;;;;;;;;;5.20;99.90;;;;;;8347589;28;19919;-68
2021/04/12 17:44:16;;;;;;;;;;;5.20;99.90;;;;;;8347400;28;19967;-69
2021/04/12 17:48:29;;;;;;;53.15;18.48;;;4.90;99.90;;;;;;8338985;28;19909;-68
2021/04/12 17:52:30;;;;;;;;;;;4.80;99.90;;;;;;8345208;28;20055;-69
2021/04/12 17:56:39;;;;;;;;;;;4.70;99.90;;;;;;8343366;28;19913;-68
2021/04/12 18:00:41;;;;;;;;;;;4.70;99.90;;;;;;8340799;28;20383;-68
2021/04/12 18:04:47;;;;;;;;;;;4.60;99.90;;;;;;8342097;28;19908;-69
2021/04/12 18:08:47;;;;;;;;;;;4.40;99.90;;;;;;8342632;28;20015;-68
2021/04/12 18:13:06;;;;;;;;;;;4.00;99.90;;;;;;8340297;28;19909;-68
2021/04/12 18:17:30;;;;;;;;;;;3.90;99.90;;;;;;8339581;28;19951;-67
2021/04/12 18:21:39;;;;;;;70.90;19.80;;;3.70;99.90;;;;;;8331907;28;20488;-68
2021/04/12 18:25:46;;;;;;;;;;;3.60;99.90;;;;;;8336248;28;20031;-69
2021/04/12 18:29:58;;;;;;;;;;;3.60;99.90;;;;;;8302972;28;19964;-67
2021/04/12 18:33:58;;;;;;;;;;;3.70;99.90;;;;;;8312322;28;19917;-67
2021/04/12 18:38:13;;;;;;;;;;;3.60;99.90;;;;;;8293765;28;19920;-67
2021/04/12 18:42:14;;;;;;;;;;;3.40;99.90;;;;;;8311748;28;19921;-67
2021/04/12 18:46:17;;;;;;;;;;;3.40;99.90;;;;;;8304864;28;20372;-68
2021/04/12 18:50:25;;;;;;;;;;;3.30;99.90;;;;;;8313929;28;19917;-67
2021/04/12 18:54:35;;;;;;;;;;;3.30;99.90;;;;;;8335307;28;19963;-68
2021/04/12 18:59:01;;;;;;;;;;;3.20;99.90;;;;;;8337942;28;20034;-68
2021/04/12 19:03:08;;;;;;;;;;;3.10;99.90;;;;;;8338678;28;19929;-68
2021/04/12 19:07:14;;;;;;;;;;;3.00;99.90;;;;;;8330589;28;19916;-67
2021/04/12 19:11:24;;;;;;;;;;;2.80;99.90;;;;;;8327890;28;19917;-68
2021/04/12 19:15:28;;;;;;;;;;;2.50;99.90;;;;;;8330450;28;19908;-68
2021/04/12 19:19:35;;;;;;;;;;;2.40;99.90;;;;;;8326237;28;19917;-68
2021/04/12 19:23:39;;;;;;;;;;;2.40;99.90;;;;;;8337554;28;19919;-67
2021/04/12 19:27:59;;;;;;;;;;;2.30;99.90;;;;;;8329339;28;19916;-67
2021/04/12 19:32:02;;;;;;;;;;;2.20;99.90;;;;;;8331437;28;19944;-67
2021/04/12 19:36:08;;;;;;;;;;;2.00;99.90;;;;;;8337907;28;20748;-68
2021/04/12 19:40:11;;;;;;;;;;;2.00;99.90;;;;;;8336097;28;19991;-68
2021/04/12 19:44:12;;;;;;;;;;;2.20;99.90;;;;;;8336964;28;19999;-67
2021/04/12 19:48:32;;;;;;;;;;;2.00;99.90;;;;;;8332995;28;21421;-70
2021/04/12 19:52:42;;;;;;;;;;;1.90;99.90;;;;;;8330051;28;19920;-70
2021/04/12 19:57:01;;;;;;;;;;;2.10;99.90;;;;;;8324429;28;19909;-67
2021/04/12 20:01:04;;;;;;;;;;;2.40;99.90;;;;;;8321444;28;19999;-68
2021/04/12 20:05:13;;;;;;;;;;;2.60;99.90;;;;;;8318483;28;19913;-67
2021/04/12 20:09:14;;;;;;;;;;;2.70;99.90;;;;;;8327337;28;19909;-68
2021/04/12 20:13:14;;;;;;;;;;;2.40;99.90;;;;;;8339493;28;20286;-68
2021/04/12 20:17:24;;;;;;;;;;;2.20;99.90;;;;;;8339490;28;19917;-67
2021/04/12 20:21:43;;;;;;;;;;;2.60;99.90;;;;;;8338870;28;20488;-67
2021/04/12 20:26:03;;;;;;;;;;;2.90;99.90;;;;;;8338878;28;19920;-68
2021/04/12 20:30:30;;;;;;;;;;;3.00;99.90;;;;;;8340675;28;19912;-68
2021/04/12 20:34:34;;;;;;;;;;;2.80;99.90;;;;;;8322453;28;19948;-68
2021/04/12 20:38:41;;;;;;;;;;;2.80;99.90;;;;;;8324324;28;19909;-67
2021/04/12 20:43:00;;;;;;;;;;;2.90;99.90;;;;;;8325387;28;20018;-67
2021/04/12 20:47:19;;;;;;;;;;;2.90;99.90;;;;;;8341116;28;20632;-68
2021/04/12 20:51:21;;;;;;;;;;;2.90;99.90;;;;;;8360118;28;19909;-68
2021/04/12 20:55:31;;;;;;;;;;;2.80;99.90;;;;;;8329572;28;20260;-67
2021/04/12 20:59:52;;;;;;;;;;;2.70;99.90;;;;;;8327287;28;19912;-67
2021/04/12 21:04:04;;;;;;;;;;;2.80;99.90;;;;;;8327631;28;19912;-67
2021/04/12 21:08:10;;;;;;;;;;;2.80;99.90;;;;;;8326567;28;20007;-67
2021/04/12 21:12:14;;;;;;;;;;;3.00;99.90;;;;;;8327013;28;20359;-67
2021/04/12 21:16:29;;;;;;;;;;;2.60;99.90;;;;;;8325865;28;19909;-67
2021/04/12 21:20:42;;;;;;;;;;;2.70;99.90;;;;;;8327041;28;19908;-68
2021/04/12 21:24:43;;;;;;;;;;;2.60;99.90;;;;;;8326893;28;20004;-67
2021/04/12 21:28:55;;;;;;;;;;;2.60;99.90;;;;;;8327033;28;19911;-67
2021/04/12 21:32:58;;;;;;;;;;;2.50;99.90;;;;;;8327294;28;19905;-68
2021/04/12 21:37:14;;;;;;;;;;;2.50;99.90;;;;;;8326783;28;20363;-67
2021/04/12 21:41:24;;;;;;;;;;;2.30;99.90;;;;;;8326618;28;19920;-67
2021/04/12 21:45:29;;;;;;;;;;;2.40;99.90;;;;;;8332646;28;19909;-67
2021/04/12 21:49:30;;;;;;;;;;;2.40;99.90;;;;;;8331589;28;19909;-67
2021/04/12 21:53:59;;;;;;;;;;;2.40;99.90;;;;;;8332261;28;19952;-67
2021/04/12 21:58:26;;;;;;;;;;;2.30;99.90;;;;;;8389789;22;20357;-65
2021/04/12 22:02:31;;;;;;;;;;;2.50;99.90;;;;;;8325593;28;19909;-65
2021/04/12 22:06:38;;;;;;;;;;;2.60;99.90;;;;;;8332003;28;19947;-65
2021/04/12 22:11:02;;;;;;;;;;;2.60;99.90;;;;;;8331651;28;19905;-65
2021/04/12 22:15:12;;;;;;;;;;;2.80;99.90;;;;;;8320443;28;20447;-65
2021/04/12 22:19:24;;;;;;;;;;;2.80;99.90;;;;;;8331405;28;19905;-65
2021/04/12 22:23:32;;;;;;;;;;;2.90;99.90;;;;;;8324985;28;20368;-64
2021/04/12 22:27:38;;;;;;;;;;;2.80;99.90;;;;;;8331154;28;19951;-65
2021/04/12 22:31:50;;;;;;;;;;;2.50;99.90;;;;;;8313350;28;19905;-65
2021/04/12 22:40:32;;;;;;;;;;;2.10;99.90;;;;;;8330857;28;19955;-65
2021/04/12 22:44:32;;;;;;;;;;;2.30;99.90;;;;;;8330376;28;19927;-65
2021/04/12 22:48:51;;;;;;;;;;;2.40;99.90;;;;;;8330552;28;19932;-65
2021/04/12 22:52:51;;;;;;;;;;;2.30;99.90;;;;;;8329736;28;19905;-65
2021/04/12 22:57:24;;;;;;;;;;;2.40;99.90;;;;;;8330072;28;20437;-65
2021/04/12 23:01:46;;;;;;;;;;;2.20;99.90;;;;;;8328661;28;20229;-65
2021/04/12 23:05:48;;;;;;;;;;;2.10;99.90;;;;;;8291792;28;19905;-65
2021/04/12 23:09:56;;;;;;;;;;;2.30;99.90;;;;;;8329769;28;19912;-65
2021/04/12 23:13:58;;;;;;;;;;;2.50;99.90;;;;;;8311859;28;20333;-65
2021/04/12 23:18:10;;;;;;;;;;;2.40;99.90;;;;;;8329588;28;19951;-65
2021/04/12 23:22:29;;;;;;;;;;;2.30;99.90;;;;;;8329234;28;19916;-65
2021/04/12 23:26:31;;;;;;;;;;;2.10;99.90;;;;;;8329448;28;19911;-65
2021/04/12 23:30:42;;;;;;;;;;;2.20;99.90;;;;;;8329235;28;19959;-65
2021/04/12 23:34:44;;;;;;;;;;;2.40;99.90;;;;;;8311339;28;19909;-65
2021/04/12 23:38:59;;;;;;;;;;;2.40;99.90;;;;;;8328924;28;19916;-64
2021/04/12 23:43:00;;;;;;;;;;;2.60;99.90;;;;;;8328502;28;19913;-64
2021/04/12 23:47:00;;;;;;;;;;;2.40;99.90;;;;;;8328775;28;19905;-65
2021/04/12 23:51:19;;;;;;;;;;;2.40;99.90;;;;;;8310706;28;19940;-64
2021/04/12 23:55:38;;;;;;;;;;;2.20;99.90;;;;;;8328745;28;19959;-65
2021/04/12 23:59:41;;;;;;;;;;;2.10;99.90;;;;;;8328136;28;19913;-65
